Time;durP1;ratioP1;P1;durP2;ratioP2;P2;SDS_P1;SDS_P2;PMS_P1;PMS_P2;Temp;Humidity;BMP_temperature;BMP_pressure;BME280_temperature;BME280_humidity;BME280_pressure;Samples;Min_cycle;Max_cycle;Signal;HPM_P1;HPM_P2
2021/12/23 00:02:25;;;;;;;5.95;4.40;;;;;;;;;;5012437;28;20140;-69
2021/12/23 00:04:52;;;;;;;5.53;3.90;;;11.90;62.80;;;;;;5012431;28;20137;-69
2021/12/23 00:07:20;;;;;;;5.15;4.00;;;12.10;62.60;;;;;;5011182;28;20130;-69
2021/12/23 00:10:05;;;;;;;5.82;4.30;;;;;;;;;;5020162;28;20053;-69
2021/12/23 00:12:32;;;;;;;5.57;4.43;;;12.00;58.70;;;;;;5012329;28;20442;-69
2021/12/23 00:14:58;;;;;;;5.40;4.00;;;11.90;62.60;;;;;;5011260;28;20076;-69
2021/12/23 00:17:40;;;;;;;4.80;3.78;;;;;;;;;;5016907;28;20573;-70
2021/12/23 00:25:42;;;;;;;5.75;4.30;;;11.90;62.90;;;;;;4975839;28;20062;-69
2021/12/23 00:28:09;;;;;;;5.40;3.83;;;11.70;62.70;;;;;;5027402;28;20055;-69
2021/12/23 00:30:36;;;;;;;5.18;4.13;;;;;;;;;;5030465;28;20060;-71
2021/12/23 00:33:03;;;;;;;5.18;4.00;;;12.00;62.70;;;;;;5030493;28;20141;-69
2021/12/23 00:35:29;;;;;;;5.78;4.13;;;11.90;62.80;;;;;;5018587;28;20054;-69
2021/12/23 00:38:01;;;;;;;4.63;3.67;;;11.80;55.20;;;;;;5010586;28;20180;-70
2021/12/23 00:40:28;;;;;;;5.80;3.95;;;;;;;;;;5011963;28;20134;-70
2021/12/23 00:42:55;;;;;;;5.20;3.85;;;12.10;63.00;;;;;;5028754;28;20084;-69
2021/12/23 00:45:22;;;;;;;5.13;4.13;;;;;;;;;;5030346;28;20132;-69
2021/12/23 00:47:49;;;;;;;4.88;3.90;;;12.00;62.60;;;;;;5030225;28;20042;-69
2021/12/23 00:50:16;;;;;;;5.80;4.20;;;11.90;62.80;;;;;;5021548;28;20096;-69
2021/12/23 00:52:43;;;;;;;5.70;3.90;;;;;;;;;;5026639;28;20128;-70
2021/12/23 00:55:12;;;;;;;5.25;3.90;;;12.00;52.40;;;;;;5034063;28;20049;-69
2021/12/23 00:57:40;;;;;;;5.07;4.03;;;11.50;62.40;;;;;;5014094;28;20046;-69
2021/12/23 01:00:09;;;;;;;5.25;3.70;;;12.00;62.80;;;;;;5014662;28;20065;-69
2021/12/23 01:02:36;;;;;;;4.72;3.83;;;12.30;63.00;;;;;;5032429;28;20142;-69
2021/12/23 01:05:03;;;;;;;5.30;3.97;;;12.00;62.20;;;;;;5035168;28;20128;-69
2021/12/23 01:07:30;;;;;;;4.80;3.63;;;12.10;62.60;;;;;;5050148;28;20141;-69
2021/12/23 01:09:57;;;;;;;5.28;3.92;;;12.00;56.90;;;;;;5023472;28;20590;-69
2021/12/23 01:12:31;;;;;;;5.72;4.13;;;12.40;62.90;;;;;;5032634;28;20134;-69
2021/12/23 01:15:09;;;;;;;5.38;3.90;;;12.10;62.50;;;;;;5019480;28;20062;-69
2021/12/23 01:17:53;;;;;;;5.40;3.85;;;12.00;62.60;;;;;;5022359;28;20053;-69
2021/12/23 01:20:25;;;;;;;5.15;3.92;;;12.10;52.20;;;;;;5016313;28;20196;-69
2021/12/23 01:22:53;;;;;;;5.78;3.78;;;12.20;62.40;;;;;;5013815;28;20419;-68
2021/12/23 01:25:20;;;;;;;5.65;3.83;;;;;;;;;;5013894;28;20058;-69
2021/12/23 01:27:48;;;;;;;4.93;3.75;;;12.10;52.20;;;;;;5013801;28;20132;-69
2021/12/23 01:30:17;;;;;;;4.88;3.58;;;;;;;;;;5023640;28;20049;-69
2021/12/23 01:32:44;;;;;;;4.55;3.75;;;12.20;57.40;;;;;;5033640;28;20049;-69
2021/12/23 01:35:11;;;;;;;4.75;3.78;;;12.20;62.20;;;;;;5033103;28;20124;-69
2021/12/23 01:37:38;;;;;;;4.93;3.42;;;;;;;;;;5032767;28;20449;-69
2021/12/23 01:40:05;;;;;;;4.75;3.90;;;12.30;62.30;;;;;;5021058;28;20414;-69
2021/12/23 01:42:32;;;;;;;4.93;3.67;;;12.00;62.10;;;;;;5030605;28;20503;-69
2021/12/23 01:45:01;;;;;;;4.72;3.63;;;11.90;62.10;;;;;;5033684;28;20056;-69
2021/12/23 01:47:29;;;;;;;4.05;3.45;;;;;;;;;;5016603;28;20136;-70
2021/12/23 01:49:56;;;;;;;4.65;3.58;;;12.20;54.80;;;;;;5014950;28;20057;-69
2021/12/23 01:52:23;;;;;;;4.82;3.80;;;12.40;62.10;;;;;;5019281;28;20051;-69
2021/12/23 01:54:49;;;;;;;4.95;3.83;;;12.00;62.30;;;;;;5021148;28;20132;-69
2021/12/23 01:57:16;;;;;;;5.72;4.20;;;12.30;56.30;;;;;;5026126;28;20053;-70
2021/12/23 01:59:43;;;;;;;5.43;3.58;;;12.40;62.20;;;;;;5033439;28;20137;-69
2021/12/23 02:02:11;;;;;;;4.97;3.78;;;12.30;62.30;;;;;;5031708;28;20057;-69
2021/12/23 02:04:38;;;;;;;4.65;3.63;;;;;;;;;;5034237;28;20144;-69
2021/12/23 02:07:05;;;;;;;4.45;3.70;;;12.60;62.40;;;;;;5027688;28;20128;-69
2021/12/23 02:09:32;;;;;;;4.55;3.45;;;12.40;62.10;;;;;;5022437;28;20487;-69
2021/12/23 02:11:59;;;;;;;4.18;3.25;;;12.30;55.50;;;;;;5013354;28;20056;-69
2021/12/23 02:14:26;;;;;;;4.35;3.55;;;12.40;62.30;;;;;;5029867;28;20486;-69
2021/12/23 02:16:53;;;;;;;4.57;3.70;;;;;;;;;;5020552;28;20137;-70
2021/12/23 02:19:21;;;;;;;4.15;3.40;;;12.20;62.20;;;;;;5033708;28;20045;-69
2021/12/23 02:21:49;;;;;;;4.72;3.70;;;12.30;62.10;;;;;;5019282;28;20184;-69
2021/12/23 02:24:17;;;;;;;4.10;3.50;;;12.50;62.30;;;;;;5025613;28;20534;-69
2021/12/23 02:26:43;;;;;;;5.95;3.67;;;12.30;61.90;;;;;;5016094;28;20088;-69
2021/12/23 02:29:10;;;;;;;4.70;3.58;;;12.20;62.20;;;;;;5021606;28;20049;-69
2021/12/23 02:31:37;;;;;;;6.03;3.88;;;;;;;;;;5021873;28;20140;-69
2021/12/23 02:34:04;;;;;;;4.55;3.42;;;12.30;62.00;;;;;;5032616;28;20132;-69
2021/12/23 02:36:31;;;;;;;4.60;3.50;;;;;;;;;;5016628;28;20149;-70
2021/12/23 02:38:59;;;;;;;4.78;3.70;;;12.00;61.70;;;;;;5012225;28;20137;-69
2021/12/23 02:41:26;;;;;;;4.78;3.63;;;;;;;;;;5024468;28;20048;-69
2021/12/23 02:43:53;;;;;;;5.35;3.88;;;;;;;;;;5032315;28;20053;-71
2021/12/23 02:46:21;;;;;;;4.55;3.50;;;;;;;;;;5032007;28;20132;-69
2021/12/23 02:48:48;;;;;;;4.82;3.60;;;12.00;62.00;;;;;;5033109;28;20134;-69
2021/12/23 02:51:15;;;;;;;5.40;3.75;;;12.40;61.90;;;;;;5029467;28;20145;-69
2021/12/23 02:53:43;;;;;;;4.95;3.78;;;11.90;61.70;;;;;;5012522;28;20435;-69
2021/12/23 02:56:14;;;;;;;5.22;3.88;;;12.40;61.90;;;;;;5023357;28;20136;-69
2021/12/23 02:58:40;;;;;;;5.05;3.80;;;12.30;62.00;;;;;;5031851;28;20041;-69
2021/12/23 03:01:08;;;;;;;4.47;3.65;;;12.40;61.90;;;;;;5022114;28;20136;-69
2021/12/23 03:03:35;;;;;;;4.03;3.30;;;12.40;62.20;;;;;;5025300;28;20128;-70
2021/12/23 03:06:02;;;;;;;4.57;3.63;;;;;;;;;;5026390;28;20128;-70
2021/12/23 03:08:29;;;;;;;4.97;3.83;;;12.30;52.00;;;;;;5030138;28;20132;-69
2021/12/23 03:10:56;;;;;;;4.30;3.20;;;;;;;;;;5016974;28;20160;-69
2021/12/23 03:13:24;;;;;;;4.90;3.50;;;12.00;61.70;;;;;;5020861;28;20057;-69
2021/12/23 03:15:51;;;;;;;4.28;3.35;;;12.40;62.00;;;;;;5027040;28;20458;-69
2021/12/23 03:18:18;;;;;;;5.35;3.65;;;12.30;62.10;;;;;;5031579;28;20130;-69
2021/12/23 03:20:44;;;;;;;4.80;3.83;;;12.20;57.40;;;;;;5013658;28;20132;-69
2021/12/23 03:23:11;;;;;;;5.07;3.60;;;12.40;62.10;;;;;;5020137;28;20050;-69
2021/12/23 03:25:38;;;;;;;4.57;3.47;;;;;;;;;;5028378;28;20057;-70
2021/12/23 03:28:05;;;;;;;4.97;3.70;;;12.20;62.00;;;;;;5031483;28;20124;-69
2021/12/23 03:30:33;;;;;;;5.25;3.80;;;12.20;61.70;;;;;;5031044;28;20507;-69
2021/12/23 03:33:00;;;;;;;5.00;3.28;;;;;;;;;;5030994;28;20060;-69
2021/12/23 03:35:27;;;;;;;4.55;3.83;;;12.20;61.90;;;;;;5011354;28;20054;-69
2021/12/23 03:37:54;;;;;;;4.75;3.78;;;12.60;62.10;;;;;;5024250;28;20049;-69
2021/12/23 03:40:21;;;;;;;4.00;3.30;;;;;;;;;;5013142;28;20058;-70
2021/12/23 03:42:48;;;;;;;5.18;4.03;;;12.30;61.80;;;;;;5026825;28;20136;-69
2021/12/23 03:45:15;;;;;;;4.72;3.67;;;;;;;;;;5029352;28;20140;-70
2021/12/23 03:47:48;;;;;;;5.45;3.60;;;12.30;62.00;;;;;;5011409;28;20054;-69
2021/12/23 03:50:16;;;;;;;4.82;3.80;;;;;;;;;;5012990;28;20499;-70
2021/12/23 03:52:43;;;;;;;4.88;3.70;;;12.20;60.40;;;;;;5029446;28;20045;-69
2021/12/23 03:55:10;;;;;;;4.97;3.72;;;12.60;56.90;;;;;;5012580;28;20149;-69
2021/12/23 03:57:37;;;;;;;4.45;3.30;;;12.00;56.70;;;;;;5011068;28;20050;-70
2021/12/23 04:00:05;;;;;;;4.57;3.47;;;12.30;61.90;;;;;;5011137;28;20064;-69
2021/12/23 04:02:31;;;;;;;4.75;3.28;;;12.40;60.50;;;;;;5011442;28;20140;-69
2021/12/23 04:05:00;;;;;;;5.18;3.83;;;12.50;61.80;;;;;;5011123;28;20140;-69
2021/12/23 04:07:27;;;;;;;5.50;3.88;;;12.10;61.80;;;;;;5017598;28;20121;-69
2021/12/23 04:09:54;;;;;;;4.00;3.50;;;;;;;;;;5019255;28;20140;-70
2021/12/23 04:12:21;;;;;;;4.45;3.50;;;12.50;61.30;;;;;;5030216;28;20132;-69
2021/12/23 04:14:48;;;;;;;4.32;3.45;;;12.40;61.70;;;;;;5016099;28;20111;-69
2021/12/23 04:17:15;;;;;;;3.85;3.40;;;12.30;61.70;;;;;;5010989;28;20510;-69
2021/12/23 04:19:44;;;;;;;4.85;3.63;;;12.40;58.70;;;;;;5011099;28;20566;-69
2021/12/23 04:22:12;;;;;;;6.18;3.67;;;12.30;52.00;;;;;;5022626;28;20057;-69
2021/12/23 04:24:39;;;;;;;3.95;3.38;;;12.60;61.80;;;;;;5018398;28;20080;-69
2021/12/23 04:27:06;;;;;;;4.60;3.50;;;;;;;;;;5030584;28;20060;-69
2021/12/23 04:29:33;;;;;;;5.35;3.63;;;12.50;62.00;;;;;;5025075;28;20471;-69
2021/12/23 04:32:00;;;;;;;4.97;3.55;;;;;;;;;;5012122;28;20132;-69
2021/12/23 04:34:27;;;;;;;4.53;3.58;;;12.30;61.90;;;;;;5016724;28;20037;-69
2021/12/23 04:36:53;;;;;;;4.97;3.53;;;12.50;61.80;;;;;;5023660;28;20061;-69
2021/12/23 04:39:22;;;;;;;4.32;3.45;;;12.30;56.10;;;;;;5013876;28;20112;-69
2021/12/23 04:41:48;;;;;;;4.55;3.40;;;12.10;61.30;;;;;;5010971;28;20066;-69
2021/12/23 04:44:15;;;;;;;4.88;3.60;;;12.50;61.80;;;;;;5019508;28;20136;-69
2021/12/23 04:46:42;;;;;;;4.63;3.65;;;;;;;;;;5023839;28;20045;-69
2021/12/23 04:49:09;;;;;;;4.30;3.42;;;12.40;61.70;;;;;;5010642;28;20132;-69
2021/12/23 04:51:36;;;;;;;4.55;3.70;;;12.20;61.90;;;;;;5022254;28;20124;-69
2021/12/23 04:54:03;;;;;;;4.72;3.50;;;;;;;;;;5019192;28;20142;-71
2021/12/23 04:56:31;;;;;;;4.20;3.67;;;12.40;61.80;;;;;;5014702;28;20049;-69
2021/12/23 04:58:57;;;;;;;4.35;3.53;;;12.60;62.10;;;;;;5030198;28;20081;-69
2021/12/23 05:01:29;;;;;;;3.92;3.35;;;12.30;61.70;;;;;;5030258;28;20148;-69
2021/12/23 05:03:56;;;;;;;4.20;3.47;;;12.30;61.90;;;;;;5030582;28;20487;-69
2021/12/23 05:06:23;;;;;;;4.50;3.35;;;12.40;60.80;;;;;;5029536;28;20099;-69
2021/12/23 05:08:50;;;;;;;4.47;3.50;;;12.50;62.00;;;;;;5016650;28;20129;-69
2021/12/23 05:11:17;;;;;;;4.72;3.60;;;;;;;;;;5014315;28;20084;-69
2021/12/23 05:13:47;;;;;;;4.38;3.55;;;12.50;61.80;;;;;;5030172;28;20057;-69
2021/12/23 05:16:14;;;;;;;4.28;3.45;;;12.30;61.70;;;;;;5013151;28;20065;-69
2021/12/23 05:18:41;;;;;;;3.88;3.40;;;12.50;62.00;;;;;;5020701;28;20500;-69
2021/12/23 05:21:07;;;;;;;3.78;3.30;;;12.50;55.30;;;;;;5031200;28;20137;-69
2021/12/23 05:23:34;;;;;;;3.83;3.15;;;12.50;61.90;;;;;;5026672;28;20059;-69
2021/12/23 05:26:01;;;;;;;4.13;3.30;;;12.70;62.10;;;;;;5030115;28;20136;-69
2021/12/23 05:28:28;;;;;;;4.43;3.38;;;;;;;;;;5029721;28;20132;-69
2021/12/23 05:30:56;;;;;;;4.55;3.30;;;11.00;51.90;;;;;;5029738;28;20141;-69
2021/12/23 05:33:22;;;;;;;4.68;3.67;;;12.40;61.70;;;;;;5030096;28;20156;-69
2021/12/23 05:35:50;;;;;;;4.57;3.40;;;;;;;;;;5031700;28;20061;-69
2021/12/23 05:38:16;;;;;;;3.75;3.20;;;12.30;61.80;;;;;;5031844;28;20045;-69
2021/12/23 05:40:43;;;;;;;3.88;3.20;;;12.40;61.90;;;;;;5033418;28;20137;-69
2021/12/23 05:43:10;;;;;;;4.28;3.58;;;;;;;;;;5016775;28;20140;-70
2021/12/23 05:45:37;;;;;;;4.40;3.60;;;12.40;61.90;;;;;;5014483;28;20551;-69
2021/12/23 05:48:06;;;;;;;4.78;3.60;;;12.40;52.00;;;;;;5024859;28;20049;-70
2021/12/23 05:50:32;;;;;;;4.22;3.40;;;12.50;61.10;;;;;;5033144;28;20140;-69
2021/12/23 05:52:59;;;;;;;5.10;3.80;;;12.40;61.90;;;;;;5014722;28;20041;-69
2021/12/23 05:55:26;;;;;;;4.18;3.72;;;;;;;;;;5014294;28;20125;-69
2021/12/23 05:57:53;;;;;;;4.03;3.22;;;12.70;62.00;;;;;;5013257;28;20064;-69
2021/12/23 06:00:27;;;;;;;4.30;3.55;;;12.40;52.00;;;;;;5026839;28;20532;-69
2021/12/23 06:02:55;;;;;;;4.00;3.13;;;;;;;;;;5017064;28;20058;-70
2021/12/23 06:05:23;;;;;;;3.83;3.03;;;12.50;56.90;;;;;;5015763;28;20059;-69
2021/12/23 06:07:50;;;;;;;4.07;3.30;;;12.60;62.00;;;;;;5018640;28;20132;-69
2021/12/23 06:10:17;;;;;;;3.95;3.30;;;12.50;57.70;;;;;;5014402;28;20085;-69
2021/12/23 06:12:44;;;;;;;3.80;3.20;;;12.40;59.70;;;;;;5024869;28;20050;-69
2021/12/23 06:15:11;;;;;;;4.20;3.45;;;;;;;;;;5014195;28;20077;-69
2021/12/23 06:17:38;;;;;;;4.72;3.45;;;12.10;61.30;;;;;;5014044;28;20057;-69
2021/12/23 06:20:05;;;;;;;4.97;3.60;;;12.30;61.80;;;;;;5027116;28;20054;-69
2021/12/23 06:22:35;;;;;;;4.85;3.60;;;12.50;61.90;;;;;;5020756;28;20165;-69
2021/12/23 06:25:02;;;;;;;3.95;3.28;;;;;;;;;;5010260;28;20092;-70
2021/12/23 06:27:29;;;;;;;4.00;3.30;;;;;;;;;;5011666;28;20124;-70
2021/12/23 06:29:56;;;;;;;4.47;3.38;;;12.30;61.50;;;;;;5012875;28;20057;-68
2021/12/23 06:32:23;;;;;;;3.65;3.15;;;;;;;;;;5011922;28;20084;-69
2021/12/23 06:34:50;;;;;;;4.47;3.60;;;12.40;57.10;;;;;;5013884;28;20124;-70
2021/12/23 06:37:17;;;;;;;4.28;3.40;;;12.80;61.80;;;;;;5011882;28;20112;-68
2021/12/23 06:39:46;;;;;;;4.88;3.65;;;12.40;52.00;;;;;;5011711;28;20575;-68
2021/12/23 06:42:14;;;;;;;4.13;3.45;;;;;;;;;;5011913;28;20513;-69
2021/12/23 06:44:41;;;;;;;4.20;3.60;;;12.40;61.50;;;;;;5012047;28;20050;-69
2021/12/23 06:47:08;;;;;;;4.43;3.38;;;12.60;52.80;;;;;;5011243;28;20141;-70
2021/12/23 06:49:35;;;;;;;3.97;3.30;;;;;;;;;;5011176;28;20129;-69
2021/12/23 06:52:02;;;;;;;4.93;3.58;;;;;;;;;;5011970;28;20065;-69
2021/12/23 06:54:29;;;;;;;4.32;3.30;;;12.60;61.80;;;;;;5012709;28;20100;-69
2021/12/23 06:56:57;;;;;;;4.22;3.38;;;12.50;51.90;;;;;;5011650;28;20050;-69
2021/12/23 06:59:24;;;;;;;4.35;3.67;;;;;;;;;;5012554;28;20527;-70
2021/12/23 07:01:50;;;;;;;3.70;3.15;;;12.50;58.20;;;;;;5011245;28;20132;-70
2021/12/23 07:04:20;;;;;;;5.53;3.85;;;12.50;61.70;;;;;;5012143;28;20145;-69
2021/12/23 07:06:56;;;;;;;4.57;3.50;;;12.40;61.60;;;;;;5010703;28;20050;-69
2021/12/23 07:09:23;;;;;;;4.07;3.40;;;12.50;61.40;;;;;;5011949;28;20077;-69
2021/12/23 07:11:49;;;;;;;3.88;3.35;;;12.70;61.50;;;;;;5011457;28;20136;-69
2021/12/23 07:14:18;;;;;;;4.28;3.55;;;12.60;51.80;;;;;;5010415;28;20077;-70
2021/12/23 07:16:44;;;;;;;6.03;3.72;;;12.50;54.90;;;;;;5011202;28;20060;-69
2021/12/23 07:19:11;;;;;;;6.30;3.60;;;12.80;61.70;;;;;;5011144;28;20454;-68
2021/12/23 07:21:38;;;;;;;4.18;3.33;;;12.70;61.40;;;;;;5012784;28;20128;-69
2021/12/23 07:24:05;;;;;;;5.15;3.58;;;12.50;53.70;;;;;;5011039;28;20158;-70
2021/12/23 07:26:33;;;;;;;4.05;3.20;;;;;;;;;;5010589;28;20486;-69
2021/12/23 07:28:59;;;;;;;4.63;3.47;;;12.80;61.50;;;;;;5009699;28;20464;-70
2021/12/23 07:31:27;;;;;;;5.28;3.38;;;12.60;51.70;;;;;;5013582;28;20051;-70
2021/12/23 07:33:54;;;;;;;5.15;3.72;;;12.60;61.50;;;;;;5030865;28;20136;-70
2021/12/23 07:36:22;;;;;;;3.88;3.20;;;;;;;;;;5031027;28;20136;-70
2021/12/23 07:38:49;;;;;;;4.30;3.70;;;;;;;;;;5031020;28;20138;-69
2021/12/23 07:41:16;;;;;;;4.03;3.58;;;12.60;60.10;;;;;;5009678;28;20057;-70
2021/12/23 07:43:55;;;;;;;3.78;3.22;;;;;;;;;;5011088;28;20406;-69
2021/12/23 07:46:22;;;;;;;4.70;3.80;;;12.90;61.80;;;;;;5013538;28;20065;-70
2021/12/23 07:48:50;;;;;;;4.80;3.08;;;12.80;52.10;;;;;;5030747;28;20129;-71
2021/12/23 07:51:17;;;;;;;5.22;3.60;;;;;;;;;;5044792;28;20085;-71
2021/12/23 07:53:44;;;;;;;6.57;3.50;;;13.10;61.60;;;;;;5014983;28;20128;-70
2021/12/23 07:56:11;;;;;;;4.72;3.45;;;12.50;61.40;;;;;;5030641;28;20055;-70
2021/12/23 07:58:39;;;;;;;4.85;3.50;;;12.80;61.40;;;;;;5022773;28;20128;-70
2021/12/23 08:01:06;;;;;;;5.20;2.85;;;13.00;61.40;;;;;;5011378;28;20156;-70
2021/12/23 08:03:33;;;;;;;4.72;3.25;;;12.70;61.20;;;;;;5017055;28;20132;-70
2021/12/23 08:06:01;;;;;;;4.35;3.28;;;13.00;59.20;;;;;;5029217;28;20081;-70
2021/12/23 08:08:28;;;;;;;4.30;3.38;;;;;;;;;;5010949;28;20134;-71
2021/12/23 08:10:55;;;;;;;4.60;3.47;;;13.00;61.50;;;;;;5011329;28;20136;-70
2021/12/23 08:13:22;;;;;;;5.78;3.50;;;13.00;59.90;;;;;;5011325;28;20136;-70
2021/12/23 08:15:49;;;;;;;4.32;3.05;;;12.90;61.20;;;;;;5010927;28;20137;-70
2021/12/23 08:18:16;;;;;;;4.45;3.35;;;;;;;;;;5010857;28;20136;-70
2021/12/23 08:20:42;;;;;;;5.25;3.40;;;12.80;61.10;;;;;;5010855;28;20064;-70
2021/12/23 08:23:10;;;;;;;4.47;3.30;;;12.70;61.00;;;;;;5010820;28;20160;-70
2021/12/23 08:25:37;;;;;;;4.00;3.33;;;12.60;61.00;;;;;;5010265;28;20124;-70
2021/12/23 08:28:04;;;;;;;3.80;3.38;;;12.80;52.70;;;;;;5010697;28;20078;-71
2021/12/23 08:30:32;;;;;;;4.35;3.30;;;13.10;61.30;;;;;;5010634;28;20110;-70
2021/12/23 08:32:59;;;;;;;3.90;3.05;;;13.00;61.10;;;;;;5010623;28;21526;-70
2021/12/23 08:35:25;;;;;;;4.72;3.00;;;13.20;61.50;;;;;;5005179;28;20132;-70
2021/12/23 08:37:53;;;;;;;4.13;3.60;;;;;;;;;;5010594;28;20443;-71
2021/12/23 08:40:23;;;;;;;4.97;3.60;;;13.00;51.80;;;;;;5010763;28;20100;-70
2021/12/23 08:42:50;;;;;;;4.10;3.03;;;13.10;61.20;;;;;;5011614;28;20042;-70
2021/12/23 08:45:17;;;;;;;4.70;3.42;;;13.10;54.40;;;;;;5009907;28;20216;-71
2021/12/23 08:47:45;;;;;;;5.10;3.33;;;13.10;61.10;;;;;;5011467;28;20054;-70
2021/12/23 08:50:12;;;;;;;4.20;3.28;;;13.20;61.40;;;;;;5014669;28;20050;-70
2021/12/23 08:52:39;;;;;;;4.25;3.47;;;;;;;;;;5010874;28;20462;-70
2021/12/23 08:55:07;;;;;;;5.35;3.33;;;12.60;61.00;;;;;;5010373;28;20085;-70
2021/12/23 08:57:35;;;;;;;5.32;3.50;;;13.00;61.30;;;;;;5010135;28;20056;-70
2021/12/23 09:00:01;;;;;;;4.40;3.33;;;13.20;61.10;;;;;;5009899;28;20141;-70
2021/12/23 09:02:29;;;;;;;4.40;3.40;;;;;;;;;;5006794;28;20463;-70
2021/12/23 09:04:56;;;;;;;4.55;3.38;;;13.20;61.00;;;;;;5009091;28;20048;-71
2021/12/23 09:07:22;;;;;;;4.68;3.47;;;13.10;57.60;;;;;;5009582;28;20144;-71
2021/12/23 09:09:51;;;;;;;4.00;3.20;;;;;;;;;;5010936;28;20156;-70
2021/12/23 09:12:18;;;;;;;4.28;3.30;;;13.10;61.00;;;;;;5013821;28;20426;-69
2021/12/23 09:14:46;;;;;;;4.30;3.30;;;13.30;61.40;;;;;;5013730;28;20137;-69
2021/12/23 09:17:13;;;;;;;5.25;3.53;;;13.10;61.00;;;;;;5012571;28;20056;-70
2021/12/23 09:19:40;;;;;;;4.47;3.63;;;;;;;;;;5013285;28;20045;-71
2021/12/23 09:22:06;;;;;;;4.65;3.80;;;13.40;59.40;;;;;;5012568;28;20233;-70
2021/12/23 09:24:33;;;;;;;26.55;4.40;;;;;;;;;;5012717;28;20054;-69
2021/12/23 09:27:10;;;;;;;8.85;3.97;;;14.30;62.10;;;;;;5012569;28;20117;-69
2021/12/23 09:35:07;;;;;;;7.55;3.70;;;14.20;61.70;;;;;;5013237;28;20160;-70
2021/12/23 09:37:34;;;;;;;6.28;4.03;;;14.70;58.40;;;;;;5012662;28;20104;-71
2021/12/23 09:40:03;;;;;;;6.38;3.78;;;13.80;61.00;;;;;;5012754;28;20077;-72
2021/12/23 09:42:30;;;;;;;8.27;4.07;;;;;;;;;;5013182;28;20061;-71
2021/12/23 09:44:59;;;;;;;6.82;4.00;;;13.00;60.50;;;;;;5014012;28;20080;-72
2021/12/23 09:47:28;;;;;;;6.43;4.10;;;13.70;51.60;;;;;;5023484;28;20068;-72
2021/12/23 09:49:55;;;;;;;7.30;4.25;;;14.60;61.60;;;;;;5033481;28;20128;-70
2021/12/23 09:52:22;;;;;;;6.55;3.97;;;;;;;;;;5033524;28;20570;-71
2021/12/23 09:54:49;;;;;;;6.25;4.07;;;14.40;61.20;;;;;;5033576;28;20049;-70
2021/12/23 09:57:16;;;;;;;6.00;3.78;;;;;;;;;;5032888;28;20060;-70
2021/12/23 09:59:43;;;;;;;5.93;4.22;;;13.70;60.60;;;;;;5033323;28;20136;-71
2021/12/23 10:02:11;;;;;;;8.15;4.88;;;;;;;;;;5019549;28;20149;-72
2021/12/23 10:04:39;;;;;;;8.23;4.88;;;13.00;60.50;;;;;;5030778;28;20136;-71
2021/12/23 10:07:05;;;;;;;7.57;4.68;;;13.90;60.80;;;;;;5032576;28;20136;-71
2021/12/23 10:09:39;;;;;;;6.85;4.53;;;;;;;;;;5032788;28;20141;-72
2021/12/23 10:31:59;;;;;;;6.60;4.10;;;13.70;60.80;;;;;;5066724;28;20049;-71
2021/12/23 10:37:18;;;;;;;5.43;4.30;;;12.90;60.10;;;;;;5019149;28;20046;-70
2021/12/23 10:39:46;;;;;;;5.82;4.22;;;13.70;60.60;;;;;;5047879;28;20053;-72
2021/12/23 10:42:14;;;;;;;7.22;4.70;;;13.80;60.70;;;;;;5047782;28;20480;-72
2021/12/23 10:44:41;;;;;;;6.30;4.10;;;13.20;60.50;;;;;;5048692;28;20057;-71
2021/12/23 10:47:11;;;;;;;6.20;4.15;;;13.40;53.10;;;;;;5058181;28;20131;-71
2021/12/23 10:49:43;;;;;;;6.47;4.60;;;13.50;60.60;;;;;;5067235;28;20132;-72
2021/12/23 10:52:16;;;;;;;7.28;5.53;;;13.80;60.00;;;;;;5067067;28;20534;-72
2021/12/23 11:00:20;;;;;;;7.50;5.05;;;14.30;60.80;;;;;;5067639;28;20702;-73
2021/12/23 11:03:04;;;;;;;6.88;5.18;;;13.80;60.80;;;;;;5066453;28;20052;-72
2021/12/23 11:05:35;;;;;;;7.00;5.00;;;12.80;60.20;;;;;;5065169;28;20041;-70
2021/12/23 11:08:11;;;;;;;6.57;5.28;;;13.70;51.30;;;;;;5065987;28;20133;-70
2021/12/23 11:11:02;;;;;;;7.38;5.43;;;;;;;;;;5064546;28;20087;-70
2021/12/23 11:27:57;;;;;;;6.15;5.00;;;14.70;61.20;;;;;;5054369;28;20044;-70
2021/12/23 11:36:19;;;;;;;6.47;4.80;;;13.70;60.70;;;;;;5051665;28;20098;-70
2021/12/23 11:39:07;;;;;;;6.32;4.70;;;13.90;60.90;;;;;;5056387;28;20045;-70
2021/12/23 11:41:37;;;;;;;8.80;4.90;;;13.90;60.00;;;;;;5050050;28;20057;-70
2021/12/23 11:44:06;;;;;;;5.68;4.50;;;13.00;60.00;;;;;;5052704;28;20077;-70
2021/12/23 11:46:37;;;;;;;6.13;5.07;;;13.40;60.30;;;;;;5051809;28;20466;-70
2021/12/23 11:49:07;;;;;;;7.50;5.18;;;;;;;;;;5052399;28;20563;-68
2021/12/23 11:51:45;;;;;;;6.97;5.18;;;13.20;57.10;;;;;;5049617;28;20057;-70
2021/12/23 11:54:13;;;;;;;9.75;4.80;;;13.80;60.60;;;;;;5053148;28;20049;-70
2021/12/23 11:56:41;;;;;;;7.50;4.78;;;13.90;54.10;;;;;;5052285;28;20137;-71
2021/12/23 11:59:10;;;;;;;6.65;4.70;;;13.80;60.40;;;;;;5052640;28;20143;-69
2021/12/23 12:01:43;;;;;;;8.43;5.10;;;13.90;51.50;;;;;;5051850;28;20147;-70
2021/12/23 12:04:12;;;;;;;6.88;4.45;;;13.90;51.50;;;;;;5053166;28;20131;-72
2021/12/23 12:06:41;;;;;;;6.47;4.80;;;13.90;51.50;;;;;;5050890;28;20091;-70
2021/12/23 12:09:13;;;;;;;6.43;4.68;;;13.60;52.80;;;;;;5050402;28;20450;-70
2021/12/23 12:11:40;;;;;;;7.47;4.82;;;;;;;;;;5050881;28;20044;-71
2021/12/23 12:14:31;;;;;;;6.97;4.93;;;13.20;60.20;;;;;;5052851;28;20045;-70
2021/12/23 12:16:58;;;;;;;7.53;4.78;;;;;;;;;;5050705;28;20055;-71
2021/12/23 12:19:50;;;;;;;6.28;4.60;;;13.90;51.50;;;;;;5051478;28;20053;-70
2021/12/23 12:22:43;;;;;;;6.32;4.78;;;14.10;60.90;;;;;;5051915;28;20132;-70
2021/12/23 12:25:09;;;;;;;7.10;4.85;;;14.00;60.90;;;;;;5048180;28;20123;-70
2021/12/23 12:27:38;;;;;;;7.93;5.00;;;;;;;;;;5051604;28;20466;-71
2021/12/23 12:30:06;;;;;;;7.13;4.57;;;13.80;52.20;;;;;;5051923;28;20049;-71
2021/12/23 12:32:36;;;;;;;5.68;4.60;;;13.90;51.60;;;;;;5051223;28;20077;-72
2021/12/23 12:35:11;;;;;;;5.95;4.55;;;13.80;55.40;;;;;;5047022;28;20073;-71
2021/12/23 12:37:42;;;;;;;7.47;4.80;;;13.80;61.10;;;;;;5050823;28;20144;-70
2021/12/23 12:40:09;;;;;;;6.20;4.78;;;14.00;52.10;;;;;;5049460;28;20057;-71
2021/12/23 12:42:40;;;;;;;6.40;4.63;;;14.10;60.90;;;;;;5052051;28;20139;-70
2021/12/23 12:45:12;;;;;;;5.85;4.55;;;14.00;51.90;;;;;;5053261;28;20072;-70
2021/12/23 12:47:48;;;;;;;6.30;4.97;;;14.10;60.90;;;;;;5052715;28;20041;-69
2021/12/23 12:50:16;;;;;;;6.75;4.38;;;14.10;61.30;;;;;;5048349;28;20053;-69
2021/12/23 12:52:45;;;;;;;5.85;4.75;;;14.10;61.40;;;;;;5050180;28;20075;-70
2021/12/23 12:55:13;;;;;;;6.15;4.68;;;13.20;61.40;;;;;;5049777;28;20409;-70
2021/12/23 12:57:43;;;;;;;6.80;4.40;;;14.20;61.80;;;;;;5048998;28;20136;-70
2021/12/23 13:00:28;;;;;;;6.30;4.68;;;14.40;56.90;;;;;;5051886;28;20061;-68
2021/12/23 13:02:56;;;;;;;7.10;4.65;;;13.30;61.20;;;;;;5051038;28;20052;-69
2021/12/23 13:05:28;;;;;;;5.90;4.53;;;14.10;60.20;;;;;;5051875;28;20581;-71
2021/12/23 13:07:56;;;;;;;7.32;5.20;;;14.30;52.50;;;;;;5051214;28;20502;-70
2021/12/23 13:10:28;;;;;;;6.10;4.82;;;13.40;61.00;;;;;;5050534;28;20063;-70
2021/12/23 13:12:56;;;;;;;6.45;4.53;;;14.30;61.30;;;;;;5051413;28;20082;-70
2021/12/23 13:15:24;;;;;;;6.82;4.78;;;13.80;52.90;;;;;;5050351;28;20127;-71
2021/12/23 13:17:54;;;;;;;6.40;4.90;;;14.90;61.60;;;;;;5051489;28;20182;-71
2021/12/23 13:20:40;;;;;;;5.78;4.40;;;14.30;61.50;;;;;;5052158;28;20481;-70
2021/12/23 13:23:14;;;;;;;5.55;4.65;;;14.20;52.40;;;;;;5051257;28;20057;-71
2021/12/23 13:25:55;;;;;;;6.35;4.65;;;13.50;61.50;;;;;;5050828;28;20056;-70
2021/12/23 13:28:27;;;;;;;9.27;4.80;;;14.10;58.70;;;;;;5051146;28;20049;-68
2021/12/23 13:30:54;;;;;;;7.03;4.60;;;;;;;;;;5047399;28;20140;-75
2021/12/23 13:33:21;;;;;;;6.63;4.78;;;;;;;;;;5031359;28;20137;-72
2021/12/23 13:35:48;;;;;;;6.60;5.10;;;;;;;;;;5030578;28;20053;-73
2021/12/23 13:38:38;;;;;;;6.38;4.82;;;14.30;61.30;;;;;;5032192;28;20492;-73
2021/12/23 13:41:29;;;;;;;6.50;4.90;;;14.20;52.40;;;;;;5031404;28;20057;-73
2021/12/23 13:43:57;;;;;;;7.60;5.50;;;14.20;52.40;;;;;;5011800;28;20084;-73
2021/12/23 13:46:25;;;;;;;6.88;4.95;;;14.20;52.30;;;;;;5043469;28;20063;-73
2021/12/23 13:48:57;;;;;;;6.55;4.95;;;14.20;52.30;;;;;;5050387;28;20059;-73
2021/12/23 13:51:29;;;;;;;8.05;5.03;;;14.20;52.30;;;;;;5050817;28;20080;-73
2021/12/23 13:54:13;;;;;;;7.10;5.57;;;15.20;61.80;;;;;;5050933;28;20140;-73
2021/12/23 13:56:43;;;;;;;6.40;5.15;;;14.20;52.30;;;;;;5050728;28;20132;-73
2021/12/23 13:59:13;;;;;;;5.53;4.38;;;13.40;60.60;;;;;;5050895;28;20141;-73
2021/12/23 14:02:00;;;;;;;6.68;4.93;;;14.30;61.10;;;;;;5050428;28;20131;-73
2021/12/23 14:04:36;;;;;;;6.75;4.93;;;14.30;59.30;;;;;;5030300;28;20132;-73
2021/12/23 14:07:07;;;;;;;8.02;5.57;;;14.10;54.30;;;;;;5030786;28;20089;-73
2021/12/23 14:09:37;;;;;;;7.13;4.68;;;13.40;60.60;;;;;;5039590;28;20136;-73
2021/12/23 14:12:05;;;;;;;6.43;4.60;;;14.60;60.60;;;;;;5047113;28;20153;-73
2021/12/23 14:14:31;;;;;;;7.32;5.13;;;14.30;58.80;;;;;;5030652;28;20081;-73
2021/12/23 14:16:58;;;;;;;6.75;5.00;;;14.30;61.10;;;;;;5036090;28;20131;-73
2021/12/23 14:19:39;;;;;;;6.45;5.05;;;13.80;60.90;;;;;;5050419;28;20140;-73